createdAt,value
2023-02-17T00:01:22.880Z,13.17
2023-02-17T00:03:50.725Z,13.60
2023-02-17T00:06:21.350Z,12.63
2023-02-17T00:08:50.593Z,11.37
2023-02-17T00:11:18.599Z,12.07
2023-02-17T00:13:46.836Z,11.63
2023-02-17T00:16:16.739Z,12.93
2023-02-17T00:18:44.502Z,12.87
2023-02-17T00:21:13.519Z,13.60
2023-02-17T00:23:42.982Z,11.90
2023-02-17T00:26:10.794Z,12.73
2023-02-17T00:28:39.787Z,13.30
2023-02-17T00:31:08.517Z,14.07
2023-02-17T00:33:36.434Z,13.57
2023-02-17T00:36:06.057Z,13.37
2023-02-17T00:38:34.158Z,12.47
2023-02-17T00:41:03.236Z,13.07
2023-02-17T00:43:31.123Z,13.53
2023-02-17T00:46:04.675Z,13.30
2023-02-17T00:48:33.027Z,13.27
2023-02-17T00:51:01.060Z,11.43
2023-02-17T00:53:28.930Z,13.47
2023-02-17T00:55:57.102Z,13.13
2023-02-17T00:58:26.755Z,13.90
2023-02-17T01:00:54.542Z,15.13
2023-02-17T01:03:22.367Z,16.07
2023-02-17T01:05:50.640Z,26.07
2023-02-17T01:08:18.848Z,21.23
2023-02-17T01:10:47.386Z,22.83
2023-02-17T01:13:15.774Z,16.70
2023-02-17T01:15:46.047Z,17.40
2023-02-17T01:18:13.824Z,16.30
2023-02-17T01:20:42.113Z,16.17
2023-02-17T01:23:11.869Z,17.47
2023-02-17T01:25:39.951Z,15.30
2023-02-17T01:28:08.356Z,13.00
2023-02-17T01:30:36.601Z,16.53
2023-02-17T01:33:06.035Z,17.93
2023-02-17T01:35:36.519Z,22.53
2023-02-17T01:38:04.386Z,25.00
2023-02-17T01:40:33.135Z,26.07
2023-02-17T01:43:01.215Z,28.03
2023-02-17T01:45:33.307Z,25.47
2023-02-17T01:48:02.295Z,25.03
2023-02-17T01:50:33.351Z,23.70
2023-02-17T01:53:04.244Z,24.20
2023-02-17T01:55:32.952Z,24.87
2023-02-17T01:58:01.474Z,23.40
2023-02-17T02:00:30.054Z,26.27
2023-02-17T02:02:58.530Z,25.00
2023-02-17T02:05:26.307Z,26.40
2023-02-17T02:07:56.160Z,26.00
2023-02-17T02:10:23.983Z,23.30
2023-02-17T02:12:52.174Z,25.80
2023-02-17T02:15:21.594Z,22.27
2023-02-17T02:17:55.952Z,21.33
2023-02-17T02:20:36.870Z,25.23
2023-02-17T02:23:19.460Z,26.07
2023-02-17T02:25:55.467Z,24.20
2023-02-17T02:28:32.231Z,22.47
2023-02-17T02:31:07.303Z,22.20
2023-02-17T02:33:40.512Z,22.00
2023-02-17T02:36:12.991Z,20.90
2023-02-17T02:38:42.666Z,21.73
2023-02-17T02:41:13.075Z,19.90
2023-02-17T02:43:41.046Z,22.13
2023-02-17T02:46:09.455Z,21.07
2023-02-17T02:48:39.566Z,13.93
2023-02-17T02:51:13.925Z,13.40
2023-02-17T02:53:55.466Z,12.13
2023-02-17T02:56:29.246Z,11.60
2023-02-17T02:59:02.009Z,12.70
2023-02-17T03:01:34.300Z,13.63
2023-02-17T03:04:06.934Z,11.63
2023-02-17T03:06:39.329Z,13.03
2023-02-17T03:09:10.573Z,13.77
2023-02-17T03:11:38.357Z,14.00
2023-02-17T03:14:07.264Z,10.13
2023-02-17T03:16:35.796Z,10.77
2023-02-17T03:19:04.893Z,12.87
2023-02-17T03:21:36.588Z,13.57
2023-02-17T03:24:04.521Z,13.27
2023-02-17T03:26:32.250Z,14.97
2023-02-17T03:29:00.097Z,17.63
2023-02-17T03:31:30.718Z,15.60
2023-02-17T03:33:58.908Z,14.37
2023-02-17T03:36:30.014Z,14.13
2023-02-17T03:38:58.036Z,15.37
2023-02-17T03:41:25.814Z,15.20
2023-02-17T03:43:53.764Z,16.10
2023-02-17T03:46:22.244Z,13.53
2023-02-17T03:48:50.004Z,18.37
2023-02-17T03:51:21.210Z,15.20
2023-02-17T03:53:50.581Z,15.43
2023-02-17T03:56:19.089Z,15.20
2023-02-17T03:58:47.088Z,15.67
2023-02-17T04:01:15.461Z,12.70
2023-02-17T04:03:43.794Z,12.53
2023-02-17T04:06:11.844Z,13.83
2023-02-17T04:08:40.550Z,12.67
2023-02-17T04:11:10.551Z,13.70
2023-02-17T04:13:38.477Z,13.57
2023-02-17T04:16:07.212Z,13.17
2023-02-17T04:18:35.468Z,13.23
2023-02-17T04:21:03.500Z,14.27
2023-02-17T04:23:31.196Z,14.07
2023-02-17T04:25:59.051Z,13.07
2023-02-17T04:28:28.368Z,14.43
2023-02-17T04:31:00.118Z,13.43
2023-02-17T04:33:28.248Z,14.47
2023-02-17T04:35:59.795Z,13.47
2023-02-17T04:38:28.257Z,15.00
2023-02-17T04:40:56.620Z,14.23
2023-02-17T04:43:24.446Z,15.37
2023-02-17T04:45:54.775Z,14.93
2023-02-17T04:48:22.527Z,14.53
2023-02-17T04:50:50.529Z,15.17
2023-02-17T04:53:18.398Z,14.90
2023-02-17T04:55:46.206Z,13.40
2023-02-17T04:58:13.932Z,14.53
2023-02-17T05:00:41.817Z,15.17
2023-02-17T05:03:10.906Z,16.67
2023-02-17T05:05:38.839Z,17.37
2023-02-17T05:08:06.692Z,17.00
2023-02-17T05:10:36.966Z,15.70
2023-02-17T05:13:05.178Z,13.27
2023-02-17T05:15:34.888Z,13.23
2023-02-17T05:18:03.072Z,15.40
2023-02-17T05:20:32.292Z,15.13
2023-02-17T05:23:00.091Z,15.00
2023-02-17T05:25:27.847Z,13.47
2023-02-17T05:27:55.904Z,13.90
2023-02-17T05:30:23.632Z,14.67
2023-02-17T05:32:51.396Z,13.03
2023-02-17T05:35:19.445Z,13.60
2023-02-17T05:37:48.893Z,15.50
2023-02-17T05:40:16.933Z,14.53
2023-02-17T05:42:44.675Z,12.60
2023-02-17T05:45:12.518Z,14.27
2023-02-17T05:47:40.330Z,14.40
2023-02-17T05:50:08.886Z,15.13
2023-02-17T05:52:36.626Z,14.73
2023-02-17T05:55:06.382Z,14.53
2023-02-17T05:57:34.888Z,13.47
2023-02-17T06:00:05.249Z,15.40
2023-02-17T06:02:33.116Z,15.07
2023-02-17T06:05:00.794Z,13.27
2023-02-17T06:07:28.823Z,15.40
2023-02-17T06:09:56.457Z,13.60
2023-02-17T06:12:27.868Z,14.30
2023-02-17T06:14:55.774Z,15.33
2023-02-17T06:17:23.852Z,15.67
2023-02-17T06:19:51.463Z,14.97
2023-02-17T06:22:19.205Z,14.30
2023-02-17T06:24:47.203Z,17.50
2023-02-17T06:27:14.961Z,15.40
2023-02-17T06:29:44.791Z,15.87
2023-02-17T06:32:12.797Z,18.50
2023-02-17T06:34:40.652Z,17.33
2023-02-17T06:37:08.424Z,20.23
2023-02-17T06:39:38.685Z,16.63
2023-02-17T06:42:08.733Z,16.20
2023-02-17T06:44:36.647Z,33.20
2023-02-17T06:47:06.172Z,20.57
2023-02-17T06:49:36.473Z,38.13
2023-02-17T06:52:06.730Z,38.17
2023-02-17T06:54:34.355Z,35.37
2023-02-17T06:57:02.863Z,33.37
2023-02-17T06:59:32.855Z,31.87
2023-02-17T07:02:02.399Z,31.47
2023-02-17T07:04:32.221Z,34.27
2023-02-17T07:07:00.067Z,27.80
2023-02-17T07:09:28.393Z,24.53
2023-02-17T07:11:56.040Z,27.07
2023-02-17T07:14:25.005Z,29.17
2023-02-17T07:16:53.467Z,21.50
2023-02-17T07:19:21.349Z,24.77
2023-02-17T07:21:50.538Z,25.43
2023-02-17T07:24:18.423Z,22.87
2023-02-17T07:26:46.194Z,24.93
2023-02-17T07:29:15.590Z,20.13
2023-02-17T07:31:43.492Z,24.33
2023-02-17T07:34:12.032Z,23.67
2023-02-17T07:36:40.078Z,21.47
2023-02-17T07:39:09.458Z,23.60
2023-02-17T07:41:37.368Z,23.10
2023-02-17T07:44:05.296Z,24.47
2023-02-17T07:46:35.388Z,25.90
2023-02-17T07:49:03.125Z,27.93
2023-02-17T07:51:30.914Z,30.77
2023-02-17T07:54:00.496Z,33.77
2023-02-17T07:56:30.195Z,35.37
2023-02-17T07:58:57.850Z,32.00
2023-02-17T08:01:26.429Z,35.07
2023-02-17T08:03:54.632Z,35.80
2023-02-17T08:06:23.563Z,34.93
2023-02-17T08:09:09.416Z,35.27
2023-02-17T08:11:56.099Z,34.60
2023-02-17T08:14:24.501Z,32.10
2023-02-17T08:16:52.421Z,32.17
2023-02-17T08:19:20.347Z,30.10
2023-02-17T08:21:48.139Z,32.67
2023-02-17T08:24:17.332Z,27.70
2023-02-17T08:26:47.456Z,30.87
2023-02-17T08:29:15.333Z,25.60
2023-02-17T08:31:43.880Z,26.47
2023-02-17T08:34:14.543Z,23.77
2023-02-17T08:36:42.485Z,19.97
2023-02-17T08:39:14.950Z,21.40
2023-02-17T08:41:43.422Z,20.93
2023-02-17T08:44:14.374Z,18.30
2023-02-17T08:46:43.133Z,19.30
2023-02-17T08:49:12.671Z,18.60
2023-02-17T08:51:41.020Z,18.30
2023-02-17T08:54:10.442Z,18.70
2023-02-17T08:56:38.903Z,18.07
2023-02-17T08:59:07.019Z,17.67
2023-02-17T09:01:37.331Z,17.90
2023-02-17T09:04:06.044Z,18.73
2023-02-17T09:06:34.791Z,18.67
2023-02-17T09:09:02.874Z,19.60
2023-02-17T09:11:30.699Z,20.10
2023-02-17T09:13:58.345Z,18.47
2023-02-17T09:16:26.412Z,21.17
2023-02-17T09:18:55.882Z,19.87
2023-02-17T09:21:24.694Z,19.73
2023-02-17T09:23:54.945Z,19.80
2023-02-17T09:26:23.220Z,25.57
2023-02-17T09:28:51.495Z,21.47
2023-02-17T09:31:24.113Z,21.50
2023-02-17T09:33:52.483Z,18.23
2023-02-17T09:36:22.237Z,19.60
2023-02-17T09:38:51.515Z,21.33
2023-02-17T09:41:20.998Z,20.20
2023-02-17T09:43:51.474Z,20.53
2023-02-17T09:46:21.233Z,21.07
2023-02-17T09:48:50.506Z,21.17
2023-02-17T09:51:23.806Z,19.77
2023-02-17T09:53:58.782Z,17.40
2023-02-17T09:56:31.121Z,16.37
2023-02-17T09:59:01.547Z,14.20
2023-02-17T10:01:32.281Z,16.00
2023-02-17T10:04:03.570Z,16.30
2023-02-17T10:06:34.176Z,8.13
2023-02-17T10:09:05.087Z,4.87
2023-02-17T10:11:33.633Z,5.03
2023-02-17T10:14:04.318Z,4.63
2023-02-17T10:16:34.513Z,6.73
2023-02-17T10:19:03.772Z,5.20
2023-02-17T10:21:36.622Z,5.83
2023-02-17T10:24:05.977Z,9.67
2023-02-17T10:26:48.892Z,7.13
2023-02-17T10:29:22.408Z,7.60
2023-02-17T10:31:56.953Z,5.93
2023-02-17T10:34:33.731Z,3.90
2023-02-17T10:37:02.370Z,3.87
2023-02-17T10:39:42.737Z,4.30
2023-02-17T10:42:15.585Z,4.23
2023-02-17T10:44:43.685Z,4.10
2023-02-17T10:47:12.249Z,5.97
2023-02-17T10:49:43.687Z,4.23
2023-02-17T10:52:12.902Z,4.30
2023-02-17T10:54:45.803Z,5.80
2023-02-17T10:57:16.615Z,4.40
2023-02-17T10:59:45.193Z,3.30
2023-02-17T11:02:18.323Z,4.47
2023-02-17T11:04:47.495Z,3.90
2023-02-17T11:07:16.193Z,4.80
2023-02-17T11:09:49.135Z,4.00
2023-02-17T11:12:18.887Z,5.43
2023-02-17T11:14:48.578Z,6.97
2023-02-17T11:17:19.670Z,6.63
2023-02-17T11:19:55.527Z,6.93
2023-02-17T11:22:35.486Z,7.43
2023-02-17T11:25:08.987Z,6.50
2023-02-17T11:27:39.080Z,5.93
2023-02-17T11:30:08.848Z,4.43
2023-02-17T11:32:37.130Z,4.53
2023-02-17T11:35:06.706Z,2.97
2023-02-17T11:37:38.877Z,3.40
2023-02-17T11:40:20.288Z,5.83
2023-02-17T11:42:56.050Z,5.70
2023-02-17T11:45:24.803Z,7.13
2023-02-17T11:47:55.869Z,5.57
2023-02-17T11:50:40.796Z,6.03
2023-02-17T11:53:18.057Z,5.07
2023-02-17T11:55:52.365Z,5.20
2023-02-17T11:58:28.672Z,5.40
2023-02-17T12:01:04.034Z,5.30
2023-02-17T12:03:42.529Z,5.87
2023-02-17T12:06:14.749Z,5.27
2023-02-17T12:08:53.466Z,5.27
2023-02-17T12:11:28.299Z,4.80
2023-02-17T12:14:00.155Z,4.17
2023-02-17T12:16:41.356Z,3.77
2023-02-17T12:19:26.465Z,5.33
2023-02-17T12:21:59.684Z,5.03
2023-02-17T12:24:35.809Z,4.70
2023-02-17T12:27:08.094Z,4.77
2023-02-17T12:29:43.974Z,6.90
2023-02-17T12:32:17.961Z,5.30
2023-02-17T12:34:50.073Z,4.70
2023-02-17T12:37:20.886Z,5.87
2023-02-17T12:39:51.371Z,5.10
2023-02-17T12:42:22.623Z,4.23
2023-02-17T12:44:51.474Z,5.70
2023-02-17T12:47:22.418Z,4.50
2023-02-17T12:49:53.875Z,4.20
2023-02-17T12:52:26.937Z,3.77
2023-02-17T12:54:56.997Z,3.40
2023-02-17T12:57:29.074Z,4.70
2023-02-17T12:59:59.434Z,4.47
2023-02-17T13:02:27.485Z,4.43
2023-02-17T13:04:56.813Z,5.13
2023-02-17T13:07:39.619Z,4.63
2023-02-17T13:10:08.823Z,4.80
2023-02-17T13:12:40.933Z,4.03
2023-02-17T13:15:26.295Z,5.13
2023-02-17T13:17:56.287Z,4.60
2023-02-17T13:20:50.931Z,4.43
2023-02-17T13:23:30.206Z,4.60
2023-02-17T13:26:21.907Z,4.17
2023-02-17T13:28:53.330Z,3.23
2023-02-17T13:31:22.526Z,3.73
2023-02-17T13:33:52.172Z,2.97
2023-02-17T13:36:21.875Z,3.63
2023-02-17T13:39:01.534Z,4.47
2023-02-17T13:41:30.345Z,4.03
2023-02-17T13:43:59.330Z,3.67
2023-02-17T13:46:27.741Z,3.43
2023-02-17T13:49:03.147Z,4.10
2023-02-17T13:51:31.794Z,4.00
2023-02-17T13:54:05.815Z,4.00
2023-02-17T13:56:34.151Z,3.30
2023-02-17T13:59:12.199Z,3.77
2023-02-17T14:01:42.418Z,3.30
2023-02-17T14:04:19.710Z,3.73
2023-02-17T14:06:49.875Z,3.77
2023-02-17T14:09:24.861Z,4.27
2023-02-17T14:11:53.325Z,3.97
2023-02-17T14:14:23.322Z,4.27
2023-02-17T14:16:58.071Z,4.80
2023-02-17T14:19:25.931Z,4.73
2023-02-17T14:22:01.926Z,3.33
2023-02-17T14:24:30.812Z,5.70
2023-02-17T14:27:00.230Z,6.60
2023-02-17T14:29:38.789Z,4.03
2023-02-17T14:32:07.013Z,4.37
2023-02-17T14:34:36.451Z,4.20
2023-02-17T14:37:11.044Z,4.80
2023-02-17T14:39:39.362Z,4.97
2023-02-17T14:42:09.700Z,4.43
2023-02-17T14:44:38.881Z,4.40
2023-02-17T14:47:07.109Z,5.90
2023-02-17T14:49:34.801Z,4.90
2023-02-17T14:52:03.349Z,4.30
2023-02-17T14:54:31.338Z,4.97
2023-02-17T14:57:04.468Z,5.27
2023-02-17T14:59:32.456Z,5.17
2023-02-17T15:02:01.833Z,5.43
2023-02-17T15:04:29.954Z,5.70
2023-02-17T15:06:57.877Z,5.90
2023-02-17T15:09:29.880Z,5.40
2023-02-17T15:11:59.403Z,5.17
2023-02-17T15:14:27.411Z,5.50
2023-02-17T15:16:55.547Z,5.20
2023-02-17T15:19:24.949Z,5.70
2023-02-17T15:21:53.426Z,6.03
2023-02-17T15:24:22.132Z,5.90
2023-02-17T15:26:50.146Z,5.30
2023-02-17T15:29:19.268Z,5.17
2023-02-17T15:31:47.707Z,6.53
2023-02-17T15:34:19.923Z,5.33
2023-02-17T15:36:52.384Z,6.30
2023-02-17T15:39:22.552Z,5.53
2023-02-17T15:41:51.017Z,6.00
2023-02-17T15:44:21.952Z,5.20
2023-02-17T15:46:51.369Z,6.43
2023-02-17T15:49:19.402Z,5.80
2023-02-17T15:51:47.203Z,6.53
2023-02-17T15:54:19.532Z,5.83
2023-02-17T15:56:49.341Z,6.17
2023-02-17T15:59:19.069Z,5.80
2023-02-17T16:01:46.931Z,8.07
2023-02-17T16:04:16.329Z,10.73
2023-02-17T16:06:44.482Z,8.53
2023-02-17T16:09:12.251Z,7.90
2023-02-17T16:11:47.012Z,6.23
2023-02-17T16:14:22.128Z,5.83
2023-02-17T16:16:51.047Z,6.20
2023-02-17T16:19:18.821Z,5.43
2023-02-17T16:21:46.542Z,5.83
2023-02-17T16:24:14.990Z,6.20
2023-02-17T16:26:44.318Z,6.73
2023-02-17T16:29:15.237Z,6.57
2023-02-17T16:31:43.252Z,6.40
2023-02-17T16:34:14.914Z,6.83
2023-02-17T16:36:42.932Z,5.23
2023-02-17T16:39:14.598Z,7.37
2023-02-17T16:41:43.913Z,7.10
2023-02-17T16:44:15.314Z,7.33
2023-02-17T16:46:47.023Z,8.27
2023-02-17T16:49:22.935Z,7.57
2023-02-17T16:51:52.144Z,7.83
2023-02-17T16:54:20.231Z,7.90
2023-02-17T16:56:48.870Z,7.97
2023-02-17T16:59:18.869Z,7.47
2023-02-17T17:01:46.722Z,7.30
2023-02-17T17:04:15.580Z,7.57
2023-02-17T17:06:44.706Z,6.70
2023-02-17T17:09:17.952Z,6.40
2023-02-17T17:11:47.101Z,5.67
2023-02-17T17:14:17.356Z,7.97
2023-02-17T17:16:50.457Z,7.53
2023-02-17T17:19:18.654Z,6.57
2023-02-17T17:21:46.924Z,7.10
2023-02-17T17:24:15.036Z,5.60
2023-02-17T17:26:44.799Z,6.67
2023-02-17T17:29:14.087Z,7.70
2023-02-17T17:31:42.455Z,9.23
2023-02-17T17:34:15.320Z,6.93
2023-02-17T17:36:44.073Z,6.23
2023-02-17T17:39:15.015Z,7.87
2023-02-17T17:41:43.053Z,6.57
2023-02-17T17:44:10.846Z,6.57
2023-02-17T17:46:40.232Z,6.50
2023-02-17T17:49:10.944Z,6.00
2023-02-17T17:51:41.113Z,7.80
2023-02-17T17:54:09.008Z,6.63
2023-02-17T17:56:38.852Z,8.90
2023-02-17T17:59:07.816Z,5.57
2023-02-17T18:01:38.036Z,5.87
2023-02-17T18:04:08.516Z,6.83
2023-02-17T18:06:39.649Z,7.33
2023-02-17T18:09:19.474Z,8.23
2023-02-17T18:11:54.828Z,7.20
2023-02-17T18:14:23.035Z,6.63
2023-02-17T18:16:52.012Z,7.73
2023-02-17T18:19:21.177Z,10.40
2023-02-17T18:21:49.062Z,7.23
2023-02-17T18:24:18.118Z,7.70
2023-02-17T18:26:45.737Z,8.23
2023-02-17T18:29:13.545Z,8.27
2023-02-17T18:31:41.311Z,8.60
2023-02-17T18:34:09.596Z,7.97
2023-02-17T18:36:37.808Z,8.50
2023-02-17T18:39:06.062Z,7.83
2023-02-17T18:41:35.574Z,8.87
2023-02-17T18:44:04.343Z,11.03
2023-02-17T18:46:34.257Z,12.70
2023-02-17T18:49:02.166Z,10.73
2023-02-17T18:51:29.866Z,9.83
2023-02-17T18:53:58.791Z,10.23
2023-02-17T18:56:28.782Z,10.77
2023-02-17T18:58:57.903Z,9.97
2023-02-17T19:01:27.276Z,10.97
2023-02-17T19:03:56.067Z,11.87
2023-02-17T19:06:24.817Z,10.47
2023-02-17T19:08:52.637Z,11.93
2023-02-17T19:11:21.589Z,11.30
2023-02-17T19:13:50.068Z,9.83
2023-02-17T19:16:20.432Z,13.37
2023-02-17T19:18:48.462Z,13.20
2023-02-17T19:21:16.640Z,13.57
2023-02-17T19:23:45.093Z,12.97
2023-02-17T19:26:13.754Z,10.47
2023-02-17T19:28:41.808Z,13.10
2023-02-17T19:31:10.501Z,15.70
2023-02-17T19:33:40.258Z,15.93
2023-02-17T19:36:08.979Z,17.40
2023-02-17T19:38:39.487Z,18.47
2023-02-17T19:41:09.666Z,20.37
2023-02-17T19:43:37.832Z,14.90
2023-02-17T19:46:06.061Z,18.17
2023-02-17T19:48:34.776Z,17.87
2023-02-17T19:51:06.912Z,18.30
2023-02-17T19:53:35.291Z,16.83
2023-02-17T19:56:12.142Z,16.80
2023-02-17T19:58:40.592Z,16.37
2023-02-17T20:01:09.870Z,16.33
2023-02-17T20:03:37.929Z,16.90
2023-02-17T20:06:09.728Z,14.40
2023-02-17T20:08:38.379Z,12.10
2023-02-17T20:11:07.963Z,9.67
2023-02-17T20:13:45.250Z,9.30
2023-02-17T20:16:14.478Z,8.07
2023-02-17T20:18:42.938Z,9.83
2023-02-17T20:21:14.014Z,9.30
2023-02-17T20:23:41.921Z,10.57
2023-02-17T20:26:13.275Z,8.80
2023-02-17T20:28:41.394Z,8.03
2023-02-17T20:31:10.169Z,8.20
2023-02-17T20:33:38.377Z,8.77
2023-02-17T20:36:07.545Z,7.47
2023-02-17T20:38:37.570Z,8.67
2023-02-17T20:41:05.720Z,8.77
2023-02-17T20:43:33.776Z,10.43
2023-02-17T20:46:01.699Z,11.33
2023-02-17T20:48:29.330Z,11.97
2023-02-17T20:50:57.516Z,13.70
2023-02-17T20:53:25.573Z,11.73
2023-02-17T20:55:54.931Z,12.57
2023-02-17T20:58:22.774Z,12.90
2023-02-17T21:00:50.905Z,11.40
2023-02-17T21:03:18.758Z,12.40
2023-02-17T21:05:46.893Z,12.93
2023-02-17T21:08:14.877Z,11.17
2023-02-17T21:10:43.011Z,10.63
2023-02-17T21:13:12.403Z,11.37
2023-02-17T21:15:40.098Z,10.03
2023-02-17T21:18:08.989Z,11.87
2023-02-17T21:20:38.337Z,12.30
2023-02-17T21:23:06.693Z,10.03
2023-02-17T21:25:34.574Z,11.93
2023-02-17T21:28:02.284Z,9.60
2023-02-17T21:30:31.464Z,8.93
2023-02-17T21:32:59.193Z,9.00
2023-02-17T21:35:27.327Z,9.27
2023-02-17T21:37:55.868Z,8.00
2023-02-17T21:40:23.667Z,7.83
2023-02-17T21:43:08.744Z,8.70
2023-02-17T21:45:40.043Z,8.60
2023-02-17T21:48:08.640Z,8.17
2023-02-17T21:50:36.246Z,9.23
2023-02-17T21:53:04.039Z,8.97
2023-02-17T21:55:32.996Z,7.93
2023-02-17T21:58:00.776Z,9.20
2023-02-17T22:00:28.562Z,8.23
2023-02-17T22:02:57.740Z,9.43
2023-02-17T22:05:25.440Z,8.93
2023-02-17T22:07:53.408Z,8.83
2023-02-17T22:10:21.272Z,8.10
2023-02-17T22:12:48.949Z,7.90
2023-02-17T22:15:17.243Z,6.70
2023-02-17T22:17:44.913Z,7.73
2023-02-17T22:20:15.873Z,9.77
2023-02-17T22:22:43.519Z,8.70
2023-02-17T22:25:11.184Z,8.67
2023-02-17T22:27:39.481Z,7.53
2023-02-17T22:30:08.620Z,7.67
2023-02-17T22:32:36.965Z,7.60
2023-02-17T22:35:05.211Z,8.60
2023-02-17T22:37:34.295Z,6.90
2023-02-17T22:40:04.126Z,7.27
2023-02-17T22:42:32.318Z,6.90
2023-02-17T22:45:00.175Z,7.43
2023-02-17T22:47:28.380Z,7.50
2023-02-17T22:49:56.634Z,6.90
2023-02-17T22:52:24.556Z,7.00
2023-02-17T22:54:54.763Z,7.53
2023-02-17T22:57:22.491Z,7.70
2023-02-17T22:59:50.342Z,7.50
2023-02-17T23:02:18.085Z,8.37
2023-02-17T23:04:46.001Z,7.90
2023-02-17T23:07:14.284Z,8.30
2023-02-17T23:09:42.021Z,6.90
2023-02-17T23:12:11.244Z,7.50
2023-02-17T23:14:40.394Z,8.07
2023-02-17T23:17:09.676Z,7.83
2023-02-17T23:19:37.851Z,7.10
2023-02-17T23:22:06.669Z,8.90
2023-02-17T23:24:34.521Z,8.13
2023-02-17T23:27:03.363Z,8.53
2023-02-17T23:29:33.317Z,8.43
2023-02-17T23:32:01.081Z,8.33
2023-02-17T23:34:29.412Z,8.07
2023-02-17T23:36:57.161Z,8.17
2023-02-17T23:39:24.891Z,7.33
2023-02-17T23:41:52.885Z,7.97
2023-02-17T23:44:20.631Z,7.70
2023-02-17T23:46:49.957Z,7.67
2023-02-17T23:49:18.131Z,8.90
2023-02-17T23:51:47.085Z,8.27
2023-02-17T23:54:15.425Z,8.13
2023-02-17T23:56:43.121Z,7.83
2023-02-17T23:59:11.061Z,7.77
